sensor_id;sensor_type;location;lat;lon;timestamp;pressure;altitude;pressure_sealevel;temperature;humidity
30338;BME280;17143;51.888;5.408;2023-04-15T00:00:13;100677.31;;;10.51;70.80
30338;BME280;17143;51.888;5.408;2023-04-15T00:15:15;100665.13;;;10.33;71.79
30338;BME280;17143;51.888;5.408;2023-04-15T00:30:17;100657.31;;;10.17;73.91
30338;BME280;17143;51.888;5.408;2023-04-15T00:45:20;100654.69;;;10.01;74.70
30338;BME280;17143;51.888;5.408;2023-04-15T01:00:22;100671.13;;;9.84;76.33
30338;BME280;17143;51.888;5.408;2023-04-15T01:15:24;100662.34;;;9.66;76.67
30338;BME280;17143;51.888;5.408;2023-04-15T01:30:27;100665.69;;;9.49;78.18
30338;BME280;17143;51.888;5.408;2023-04-15T01:45:29;100675.97;;;9.31;80.92
30338;BME280;17143;51.888;5.408;2023-04-15T02:00:31;100682.28;;;9.20;82.00
30338;BME280;17143;51.888;5.408;2023-04-15T02:15:34;100685.41;;;9.14;83.89
30338;BME280;17143;51.888;5.408;2023-04-15T02:30:36;100689.09;;;9.03;85.23
30338;BME280;17143;51.888;5.408;2023-04-15T02:45:38;100693.59;;;8.91;85.03
30338;BME280;17143;51.888;5.408;2023-04-15T03:00:40;100715.09;;;8.74;86.89
30338;BME280;17143;51.888;5.408;2023-04-15T03:15:43;100709.38;;;8.65;89.00
30338;BME280;17143;51.888;5.408;2023-04-15T03:30:45;100722.78;;;8.58;89.45
30338;BME280;17143;51.888;5.408;2023-04-15T03:45:48;100734.56;;;8.38;90.68
30338;BME280;17143;51.888;5.408;2023-04-15T04:00:50;100766.69;;;8.13;91.08
30338;BME280;17143;51.888;5.408;2023-04-15T04:15:52;100783.09;;;7.98;91.98
30338;BME280;17143;51.888;5.408;2023-04-15T04:30:54;100795.25;;;7.86;93.72
30338;BME280;17143;51.888;5.408;2023-04-15T04:45:56;100814.63;;;7.78;95.58
30338;BME280;17143;51.888;5.408;2023-04-15T05:00:58;100847.94;;;7.72;96.31
30338;BME280;17143;51.888;5.408;2023-04-15T05:16:01;100858.31;;;7.72;96.94
30338;BME280;17143;51.888;5.408;2023-04-15T05:31:03;100892.81;;;7.84;97.64
30338;BME280;17143;51.888;5.408;2023-04-15T05:46:05;100919.16;;;7.90;99.04
30338;BME280;17143;51.888;5.408;2023-04-15T06:01:07;100936.53;;;8.18;97.68
30338;BME280;17143;51.888;5.408;2023-04-15T06:16:09;100960.19;;;8.89;95.60
30338;BME280;17143;51.888;5.408;2023-04-15T06:31:11;100981.97;;;11.44;88.44
30338;BME280;17143;51.888;5.408;2023-04-15T06:46:13;100992.72;;;13.83;75.20
30338;BME280;17143;51.888;5.408;2023-04-15T07:01:15;101033.00;;;12.39;77.54
30338;BME280;17143;51.888;5.408;2023-04-15T07:16:17;101064.38;;;14.44;71.56
30338;BME280;17143;51.888;5.408;2023-04-15T07:31:20;101077.28;;;15.46;67.40
30338;BME280;17143;51.888;5.408;2023-04-15T07:46:23;101093.75;;;15.88;62.13
30338;BME280;17143;51.888;5.408;2023-04-15T08:01:25;101106.41;;;16.72;58.46
30338;BME280;17143;51.888;5.408;2023-04-15T08:16:27;101126.47;;;17.22;55.61
30338;BME280;17143;51.888;5.408;2023-04-15T08:31:29;101145.44;;;17.38;54.48
30338;BME280;17143;51.888;5.408;2023-04-15T08:46:31;101161.22;;;16.85;53.54
30338;BME280;17143;51.888;5.408;2023-04-15T09:01:34;101191.34;;;16.68;54.88
30338;BME280;17143;51.888;5.408;2023-04-15T09:16:58;101215.03;;;15.76;56.20
30338;BME280;17143;51.888;5.408;2023-04-15T09:32:10;101235.16;;;16.43;56.42
30338;BME280;17143;51.888;5.408;2023-04-15T10:02:40;101259.78;;;16.93;52.78
30338;BME280;17143;51.888;5.408;2023-04-15T10:17:43;101273.88;;;16.95;52.75
30338;BME280;17143;51.888;5.408;2023-04-15T10:32:45;101282.81;;;17.50;54.68
30338;BME280;17143;51.888;5.408;2023-04-15T10:47:54;101292.31;;;16.95;54.78
30338;BME280;17143;51.888;5.408;2023-04-15T11:02:57;101314.25;;;16.72;55.34
30338;BME280;17143;51.888;5.408;2023-04-15T11:18:09;101318.06;;;16.80;55.16
30338;BME280;17143;51.888;5.408;2023-04-15T11:33:11;101334.13;;;17.11;54.48
30338;BME280;17143;51.888;5.408;2023-04-15T11:48:13;101332.28;;;17.09;54.73
30338;BME280;17143;51.888;5.408;2023-04-15T12:03:24;101348.72;;;16.78;55.59
30338;BME280;17143;51.888;5.408;2023-04-15T12:18:26;101348.78;;;17.28;52.71
30338;BME280;17143;51.888;5.408;2023-04-15T12:33:33;101376.59;;;17.20;53.61
30338;BME280;17143;51.888;5.408;2023-04-15T12:48:35;101387.06;;;16.95;54.28
30338;BME280;17143;51.888;5.408;2023-04-15T13:03:37;101424.97;;;16.54;56.45
30338;BME280;17143;51.888;5.408;2023-04-15T13:18:39;101447.06;;;16.16;56.58
30338;BME280;17143;51.888;5.408;2023-04-15T13:33:41;101455.53;;;16.09;57.71
30338;BME280;17143;51.888;5.408;2023-04-15T13:48:43;101462.88;;;15.97;58.45
30338;BME280;17143;51.888;5.408;2023-04-15T14:03:45;101492.38;;;15.69;60.70
30338;BME280;17143;51.888;5.408;2023-04-15T14:18:47;101517.97;;;15.37;62.15
30338;BME280;17143;51.888;5.408;2023-04-15T14:33:49;101535.81;;;15.24;63.16
30338;BME280;17143;51.888;5.408;2023-04-15T14:48:51;101556.78;;;14.70;64.75
30338;BME280;17143;51.888;5.408;2023-04-15T15:03:54;101589.22;;;14.21;68.37
30338;BME280;17143;51.888;5.408;2023-04-15T15:18:56;101601.88;;;13.63;72.09
30338;BME280;17143;51.888;5.408;2023-04-15T15:33:58;101613.81;;;13.90;68.76
30338;BME280;17143;51.888;5.408;2023-04-15T15:49:01;101632.72;;;13.22;70.33
30338;BME280;17143;51.888;5.408;2023-04-15T16:04:03;101657.28;;;12.95;72.96
30338;BME280;17143;51.888;5.408;2023-04-15T16:19:05;101683.38;;;12.64;75.76
30338;BME280;17143;51.888;5.408;2023-04-15T16:34:07;101704.09;;;12.04;78.19
30338;BME280;17143;51.888;5.408;2023-04-15T16:49:09;101726.97;;;11.67;81.62
30338;BME280;17143;51.888;5.408;2023-04-15T17:04:11;101740.94;;;11.28;82.16
30338;BME280;17143;51.888;5.408;2023-04-15T17:19:13;101746.56;;;11.08;83.09
30338;BME280;17143;51.888;5.408;2023-04-15T17:34:15;101771.88;;;11.22;84.66
30338;BME280;17143;51.888;5.408;2023-04-15T17:49:17;101777.06;;;10.96;85.56
30338;BME280;17143;51.888;5.408;2023-04-15T18:04:19;101790.13;;;11.09;86.16
30338;BME280;17143;51.888;5.408;2023-04-15T18:19:22;101794.97;;;10.91;86.90
30338;BME280;17143;51.888;5.408;2023-04-15T18:34:24;101826.13;;;10.77;89.17
30338;BME280;17143;51.888;5.408;2023-04-15T18:49:26;101839.94;;;10.51;90.96
30338;BME280;17143;51.888;5.408;2023-04-15T19:04:28;101862.63;;;10.40;92.94
30338;BME280;17143;51.888;5.408;2023-04-15T19:19:30;101879.78;;;10.25;93.26
30338;BME280;17143;51.888;5.408;2023-04-15T19:34:32;101885.22;;;10.05;95.80
30338;BME280;17143;51.888;5.408;2023-04-15T19:49:34;101911.25;;;10.05;98.62
30338;BME280;17143;51.888;5.408;2023-04-15T20:04:36;101911.72;;;10.00;100.00
30338;BME280;17143;51.888;5.408;2023-04-15T20:19:38;101913.63;;;9.91;100.00
30338;BME280;17143;51.888;5.408;2023-04-15T20:34:40;101916.34;;;9.80;100.00
30338;BME280;17143;51.888;5.408;2023-04-15T20:49:42;101919.19;;;9.84;100.00
30338;BME280;17143;51.888;5.408;2023-04-15T21:04:44;101934.56;;;9.92;100.00
30338;BME280;17143;51.888;5.408;2023-04-15T21:19:46;101935.72;;;9.84;100.00
30338;BME280;17143;51.888;5.408;2023-04-15T21:34:48;101946.31;;;9.75;100.00
30338;BME280;17143;51.888;5.408;2023-04-15T21:49:50;101954.59;;;9.82;100.00
30338;BME280;17143;51.888;5.408;2023-04-15T22:04:52;101955.38;;;9.80;100.00
30338;BME280;17143;51.888;5.408;2023-04-15T22:19:54;101962.03;;;9.77;100.00
30338;BME280;17143;51.888;5.408;2023-04-15T22:34:56;101971.19;;;9.72;100.00
30338;BME280;17143;51.888;5.408;2023-04-15T22:49:58;101986.28;;;9.76;100.00
30338;BME280;17143;51.888;5.408;2023-04-15T23:05:00;101997.00;;;9.80;100.00
30338;BME280;17143;51.888;5.408;2023-04-15T23:20:03;102010.38;;;9.85;100.00
30338;BME280;17143;51.888;5.408;2023-04-15T23:35:05;102011.72;;;9.80;100.00
30338;BME280;17143;51.888;5.408;2023-04-15T23:50:08;102012.97;;;9.85;100.00
